»·PEaware :: N129WS KSMX-KBFL

N129WS :: KSMX-KBFL

FLIGHT INFORMATION

Flight Status: Arrived
Operator: Privately registered:
United States
More flights under this callsign
Pilot: Michael M. (12217)
Aircraft: CESSNA 172 SKYHAWK
(C172)
More flights by this aircraft type
Origin: KSMX Santa Maria Pub/Capt Hancock
United States
Destination: KBFL Meadows
United States
More flights between these airports :: More routes between these airports
Route: +
File this flight plan on PilotEdge
Remarks:
Altitude:
(Current/Filed)
0ft
Speed:
(Current/Filed)
0kts
Departed: 30-Oct-16 04:27 PM
Arrived: 30-Oct-16 05:17 PM
Distance/Time
Traveled:
76nm/0:49
Distance/Time
To Go:
Arrived

Flight Plot

Page will automatically refresh every two minutes.


Map Options




Map Legend


Flown Route
Filed Route
Departure Airport
Arrival Airport
Navaid (VOR, NDB)
Fix

Horizontal Profiles

Position Reports

Time Latitude Longitude Heading Altitude Ground
Speed
30-Oct-16 16:16 34.894400 -120.443082 273 264ft 0kts
30-Oct-16 16:17 34.894226 -120.443518 243 264ft 3kts
30-Oct-16 16:18 34.893394 -120.445053 231 264ft 0kts
30-Oct-16 16:19 34.893378 -120.445082 238 264ft 0kts
30-Oct-16 16:20 34.893378 -120.445082 238 264ft 0kts
30-Oct-16 16:21 34.893107 -120.445407 226 264ft 16kts
30-Oct-16 16:22 34.903652 -120.456136 314 824ft 66kts
30-Oct-16 16:23 34.919412 -120.453993 83 1555ft 98kts
30-Oct-16 16:24 34.913575 -120.426727 112 2407ft 91kts
30-Oct-16 16:25 34.915344 -120.396938 68 3226ft 98kts
30-Oct-16 16:26 34.922294 -120.363962 101 3561ft 128kts
30-Oct-16 16:27 34.909586 -120.329455 138 3548ft 126kts
30-Oct-16 16:28 34.891621 -120.300307 119 3545ft 126kts
30-Oct-16 16:29 34.891464 -120.271007 82 4511ft 77kts
30-Oct-16 16:30 34.897403 -120.249252 50 4820ft 109kts
30-Oct-16 16:31 34.913198 -120.231410 34 5359ft 103kts
30-Oct-16 16:32 34.934766 -120.213596 34 5719ft 109kts
30-Oct-16 16:33 34.959330 -120.193277 34 6110ft 110kts
30-Oct-16 16:34 34.983808 -120.173001 34 6497ft 110kts
30-Oct-16 16:35 35.004934 -120.148718 52 6878ft 109kts
30-Oct-16 16:36 35.020426 -120.119482 60 7253ft 108kts
30-Oct-16 16:37 35.033837 -120.088841 62 7445ft 120kts
30-Oct-16 16:38 35.047857 -120.054390 64 7397ft 124kts
30-Oct-16 16:39 35.062214 -120.018179 64 7394ft 121kts
30-Oct-16 16:40 35.076398 -119.982112 64 7394ft 121kts
30-Oct-16 16:41 35.090344 -119.946534 64 7395ft 121kts
30-Oct-16 16:42 35.100635 -119.920478 67 7463ft 125kts
30-Oct-16 16:43 35.113121 -119.888373 67 7476ft 136kts
30-Oct-16 16:44 35.127124 -119.852465 67 7475ft 139kts
30-Oct-16 16:45 35.142182 -119.813857 67 7475ft 140kts
30-Oct-16 16:46 35.157009 -119.775808 67 7476ft 140kts
30-Oct-16 16:47 35.171754 -119.737868 66 7473ft 140kts
30-Oct-16 16:48 35.186729 -119.699286 65 7465ft 141kts
30-Oct-16 16:49 35.200803 -119.663014 64 7457ft 143kts
30-Oct-16 16:50 35.216865 -119.621555 62 7446ft 143kts
30-Oct-16 16:51 35.233388 -119.579035 60 7436ft 143kts
30-Oct-16 16:52 35.249969 -119.536269 58 7426ft 136kts
30-Oct-16 16:53 35.265345 -119.496531 57 7424ft 129kts
30-Oct-16 16:54 35.280198 -119.458077 57 7478ft 124kts
30-Oct-16 16:55 35.295067 -119.419531 57 7480ft 126kts
30-Oct-16 16:56 35.312118 -119.375191 58 6201ft 157kts
30-Oct-16 16:57 35.326068 -119.338988 56 4836ft 142kts
30-Oct-16 16:58 35.343462 -119.293816 54 3487ft 99kts
30-Oct-16 16:59 35.352391 -119.270810 52 3523ft 98kts
30-Oct-16 17:00 35.364152 -119.240008 53 3504ft 89kts
30-Oct-16 17:01 35.373447 -119.215725 50 3511ft 74kts
30-Oct-16 17:02 35.382292 -119.193069 52 3274ft 99kts
30-Oct-16 17:03 35.392396 -119.166084 49 2997ft 68kts
30-Oct-16 17:04 35.399818 -119.144460 64 2855ft 76kts
30-Oct-16 17:05 35.399649 -119.120055 88 2364ft 91kts
30-Oct-16 17:06 35.399968 -119.096127 86 1974ft 90kts
30-Oct-16 17:07 35.400845 -119.072168 75 1651ft 88kts
30-Oct-16 17:08 35.405947 -119.049054 45 1284ft 76kts
30-Oct-16 17:09 35.419072 -119.034570 56 1015ft 64kts
30-Oct-16 17:10 35.417696 -119.037128 323 707ft 65kts
30-Oct-16 17:11 35.431023 -119.052976 322 597ft 58kts
30-Oct-16 17:12 35.438251 -119.059777 80 509ft 16kts

Navigation Log

Ident Type
1. KSMX Airport
2. KBFL Airport